Time;durP1;ratioP1;P1;durP2;ratioP2;P2;SDS_P1;SDS_P2;PMS_P1;PMS_P2;Temp;Humidity;BMP_temperature;BMP_pressure;BME280_temperature;BME280_humidity;BME280_pressure;Samples;Min_cycle;Max_cycle;Signal;HPM_P1;HPM_P2
2022/06/13 00:02:07;;;;;;;20.70;4.55;;;;;;;;;;5059386;28;20037;-62
2022/06/13 00:04:35;;;;;;;17.88;4.93;;;;;;;;;;5066530;28;20431;-62
2022/06/13 00:07:01;;;;;;;15.48;3.83;;;;;;;;;;5054584;28;20028;-62
2022/06/13 00:09:27;;;;;;;16.05;4.10;;;;;;;;;;5065488;28;20044;-62
2022/06/13 00:11:54;;;;;;;14.60;3.72;;;;;;;;;;5061618;28;20033;-62
2022/06/13 00:14:20;;;;;;;9.75;4.20;;;;;;;;;;5057755;28;20033;-62
2022/06/13 00:16:46;;;;;;;14.75;4.25;;;;;;;;;;5067960;28;20036;-62
2022/06/13 00:19:12;;;;;;;13.27;3.83;;;;;;;;;;5055727;28;20016;-62
2022/06/13 00:21:38;;;;;;;16.02;4.68;;;;;;;;;;5063674;28;20362;-62
2022/06/13 00:24:07;;;;;;;21.73;5.55;;;;;;;;;;5063129;28;20079;-62
2022/06/13 00:26:35;;;;;;;15.80;4.32;;;;;;;;;;5056211;28;20055;-62
2022/06/13 00:29:01;;;;;;;17.85;4.30;;;;;;;;;;5065742;28;20036;-62
2022/06/13 00:31:27;;;;;;;19.85;4.10;;;;;;;;;;5057603;28;20097;-62
2022/06/13 00:33:53;;;;;;;15.40;3.97;;;;;;;;;;5061262;28;20404;-62
2022/06/13 00:36:26;;;;;;;15.85;4.30;;;;;;;;;;5067746;28;20090;-62
2022/06/13 00:38:53;;;;;;;13.00;3.65;;;;;;;;;;5058160;28;20473;-62
2022/06/13 00:41:26;;;;;;;9.80;3.38;;;;;;;;;;5070512;28;20409;-61
2022/06/13 00:43:53;;;;;;;13.18;3.55;;;;;;;;;;5064323;28;20530;-62
2022/06/13 00:46:21;;;;;;;12.05;3.58;;;;;;;;;;5068020;28;20028;-62
2022/06/13 00:48:48;;;;;;;16.63;4.68;;;;;;;;;;5057989;28;20071;-62
2022/06/13 00:51:14;;;;;;;15.48;3.88;;;;;;;;;;5070062;28;20035;-62
2022/06/13 00:53:41;;;;;;;11.50;3.38;;;;;;;;;;5062687;28;20484;-62
2022/06/13 00:56:17;;;;;;;11.95;3.30;;;;;;;;;;5063722;28;20033;-62
2022/06/13 00:58:49;;;;;;;8.05;3.90;;;;;;;;;;5070902;28;20098;-62
2022/06/13 01:01:15;;;;;;;12.07;3.92;;;;;;;;;;5058416;28;20039;-62
2022/06/13 01:03:43;;;;;;;10.63;4.35;;;;;;;;;;5072830;28;20443;-62
2022/06/13 01:06:09;;;;;;;14.02;3.90;;;;;;;;;;5063325;28;20029;-62
2022/06/13 01:08:37;;;;;;;10.18;3.20;;;;;;;;;;5069718;28;20031;-62
2022/06/13 01:11:16;;;;;;;17.83;3.90;;;;;;;;;;5057673;28;20025;-62
2022/06/13 01:13:54;;;;;;;15.13;3.85;;;;;;;;;;5066412;28;20032;-62
2022/06/13 01:16:24;;;;;;;10.00;3.38;;;;;;;;;;5066926;28;20488;-62
2022/06/13 01:18:50;;;;;;;9.82;2.85;;;;;;;;;;5057867;28;20032;-62
2022/06/13 01:21:51;;;;;;;17.35;3.67;;;;;;;;;;5069816;28;20378;-61
2022/06/13 01:24:17;;;;;;;13.80;4.32;;;;;;;;;;5013025;28;20069;-62
2022/06/13 01:26:43;;;;;;;12.00;3.65;;;;;;;;;;5027962;28;20048;-62
2022/06/13 01:29:27;;;;;;;17.33;4.47;;;;;;;;;;5015477;28;20180;-62
2022/06/13 01:31:53;;;;;;;13.23;3.67;;;;;;;;;;5023342;28;20038;-62
2022/06/13 01:34:19;;;;;;;10.95;4.20;;;;;;;;;;5023830;28;20064;-62
2022/06/13 01:36:48;;;;;;;9.57;3.25;;;;;;;;;;5016645;28;20036;-62
2022/06/13 01:39:23;;;;;;;11.57;3.55;;;;;;;;;;5015158;28;20037;-62
2022/06/13 01:41:55;;;;;;;9.23;3.53;;;;;;;;;;5024412;28;20498;-62
2022/06/13 01:44:36;;;;;;;12.15;3.65;;;;;;;;;;5015806;28;20045;-62
2022/06/13 01:47:13;;;;;;;14.95;3.67;;;;;;;;;;5027947;28;20075;-62
2022/06/13 01:49:47;;;;;;;11.95;3.60;;;;;;;;;;5018313;28;20037;-62
2022/06/13 01:52:26;;;;;;;9.02;3.28;;;;;;;;;;5020907;28;20064;-62
2022/06/13 01:55:01;;;;;;;11.40;3.28;;;;;;;;;;5028195;28;20099;-62
2022/06/13 01:57:27;;;;;;;8.43;4.15;;;;;;;;;;5019943;28;20114;-62
2022/06/13 01:59:56;;;;;;;9.93;2.80;;;;;;;;;;5061366;28;20028;-62
2022/06/13 02:02:41;;;;;;;10.48;3.30;;;;;;;;;;5061553;28;20044;-62
2022/06/13 02:05:19;;;;;;;10.15;2.85;;;;;;;;;;5055067;28;20033;-62
2022/06/13 02:07:52;;;;;;;9.82;3.67;;;;;;;;;;5066802;28;20473;-62
2022/06/13 02:10:27;;;;;;;11.68;3.60;;;;;;;;;;5064783;28;20024;-62
2022/06/13 02:12:56;;;;;;;16.42;4.10;;;;;;;;;;5057273;28;20120;-62
2022/06/13 02:15:24;;;;;;;11.60;3.25;;;;;;;;;;5056566;28;20028;-62
2022/06/13 02:17:57;;;;;;;10.32;3.13;;;;;;;;;;5066317;28;20025;-62
2022/06/13 02:20:26;;;;;;;14.68;3.40;;;;;;;;;;5065300;28;20036;-62
2022/06/13 02:22:56;;;;;;;14.52;3.75;;;;;;;;;;5056998;28;20029;-62
2022/06/13 02:25:30;;;;;;;10.07;3.53;;;;;;;;;;5069642;28;20063;-62
2022/06/13 02:28:29;;;;;;;13.02;3.22;;;;;;;;;;5060941;28;20098;-62
2022/06/13 02:30:58;;;;;;;11.60;3.85;;;;;;;;;;5030819;28;20107;-62
2022/06/13 02:33:29;;;;;;;8.00;2.78;;;;;;;;;;5014580;28;20444;-62
2022/06/13 02:35:59;;;;;;;9.82;3.30;;;;;;;;;;5022807;28;20569;-62
2022/06/13 02:38:38;;;;;;;10.15;2.90;;;;;;;;;;5022938;28;20040;-62
2022/06/13 02:41:07;;;;;;;8.70;3.40;;;;;;;;;;5014053;28;20100;-62
2022/06/13 02:43:38;;;;;;;14.25;3.60;;;;;;;;;;5025388;28;20037;-62
2022/06/13 02:46:06;;;;;;;16.13;3.70;;;;;;;;;;5015731;28;20495;-62
2022/06/13 02:48:36;;;;;;;9.98;3.10;;;;;;;;;;5010999;28;20034;-62
2022/06/13 02:51:05;;;;;;;7.75;3.55;;;;;;;;;;5011075;28;20084;-62
2022/06/13 02:53:40;;;;;;;11.65;3.45;;;;;;;;;;5010906;28;20030;-62
2022/06/13 02:56:12;;;;;;;11.38;3.47;;;;;;;;;;5010729;28;20057;-62
2022/06/13 02:58:46;;;;;;;10.43;3.07;;;;;;;;;;5026510;28;20073;-62
2022/06/13 03:01:17;;;;;;;11.45;2.85;;;;;;;;;;5029064;28;20084;-62
2022/06/13 03:03:43;;;;;;;14.18;3.00;;;;;;;;;;5029813;28;20033;-62
2022/06/13 03:06:15;;;;;;;7.85;2.95;;;;;;;;;;5038017;28;20114;-62
2022/06/13 03:08:41;;;;;;;12.65;3.47;;;;;;;;;;5065882;28;20112;-62
2022/06/13 03:11:16;;;;;;;8.88;2.95;;;;;;;;;;5055299;28;20025;-62
2022/06/13 03:13:45;;;;;;;7.45;2.80;;;;;;;;;;5067176;28;20024;-62
2022/06/13 03:16:18;;;;;;;10.98;3.00;;;;;;;;;;5061405;28;20283;-63
2022/06/13 03:18:56;;;;;;;9.48;3.30;;;;;;;;;;5060799;28;20033;-62
2022/06/13 03:21:33;;;;;;;13.23;3.33;;;;;;;;;;5062651;28;20040;-62
2022/06/13 03:24:03;;;;;;;8.63;2.60;;;;;;;;;;5058353;28;20123;-62
2022/06/13 03:26:38;;;;;;;11.00;3.28;;;;;;;;;;5060038;28;20025;-62
2022/06/13 03:29:14;;;;;;;11.02;3.17;;;;;;;;;;5060335;28;20485;-62
2022/06/13 03:31:52;;;;;;;7.15;2.83;;;;;;;;;;5057000;28;20040;-62
2022/06/13 03:34:20;;;;;;;11.65;3.17;;;;;;;;;;5062262;28;20036;-62
2022/06/13 03:37:04;;;;;;;12.80;3.78;;;;;;;;;;5065530;28;20031;-62
2022/06/13 03:39:38;;;;;;;10.45;3.08;;;;;;;;;;5056100;28;20033;-62
2022/06/13 03:42:04;;;;;;;7.68;3.78;;;;;;;;;;5058336;28;20519;-62
2022/06/13 03:44:30;;;;;;;12.80;3.55;;;;;;;;;;5060564;28;20480;-62
2022/06/13 03:46:59;;;;;;;6.20;2.95;;;;;;;;;;5058887;28;20059;-62
2022/06/13 03:49:31;;;;;;;7.50;3.05;;;;;;;;;;5068907;28;20024;-62
2022/06/13 03:51:59;;;;;;;8.55;3.40;;;;;;;;;;5052172;28;20401;-62
2022/06/13 03:54:29;;;;;;;11.18;3.67;;;;;;;;;;5059163;28;20083;-62
2022/06/13 03:56:59;;;;;;;6.95;3.15;;;;;;;;;;5065749;28;20028;-62
2022/06/13 03:59:38;;;;;;;15.32;3.80;;;;;;;;;;5053079;28;20036;-62
2022/06/13 04:02:07;;;;;;;13.27;3.15;;;;;;;;;;5051548;28;20061;-62
2022/06/13 04:04:39;;;;;;;6.35;2.72;;;;;;;;;;5068886;28;20070;-62
2022/06/13 04:07:05;;;;;;;5.63;2.85;;;;;;;;;;5056092;28;20484;-62
2022/06/13 04:09:34;;;;;;;7.93;2.75;;;;;;;;;;5065026;28;20480;-62
2022/06/13 04:12:19;;;;;;;6.47;2.83;;;;;;;;;;5062093;28;20123;-62
2022/06/13 04:14:54;;;;;;;6.68;2.95;;;;;;;;;;5062285;28;20024;-62
2022/06/13 04:17:28;;;;;;;5.78;2.80;;;;;;;;;;5056059;28;20112;-62
2022/06/13 04:19:57;;;;;;;11.48;3.63;;;;;;;;;;5072134;28;20072;-62
2022/06/13 04:22:42;;;;;;;7.10;2.90;;;;;;;;;;5065740;28;20473;-62
2022/06/13 04:25:20;;;;;;;9.18;3.97;;;;;;;;;;5070597;28;20469;-62
2022/06/13 04:27:48;;;;;;;11.68;3.05;;;;;;;;;;5059447;28;20033;-62
2022/06/13 04:30:16;;;;;;;19.15;3.63;;;;;;;;;;5066769;28;20121;-62
2022/06/13 04:32:51;;;;;;;8.40;2.80;;;;;;;;;;5066757;28;20033;-62
2022/06/13 04:35:17;;;;;;;9.32;2.78;;;;;;;;;;5058945;28;20032;-62
2022/06/13 04:37:44;;;;;;;7.07;2.80;;;;;;;;;;5059667;28;20032;-62
2022/06/13 04:40:13;;;;;;;10.82;3.30;;;;;;;;;;5066534;28;20029;-62
2022/06/13 04:42:41;;;;;;;6.57;2.55;;;;;;;;;;5078140;28;20135;-62
2022/06/13 04:45:14;;;;;;;7.82;3.17;;;;;;;;;;5064449;28;20025;-62
2022/06/13 04:47:41;;;;;;;10.55;3.05;;;;;;;;;;5066501;28;20132;-62
2022/06/13 04:50:07;;;;;;;9.90;3.28;;;;;;;;;;5054680;28;20455;-62
2022/06/13 04:52:36;;;;;;;7.20;3.13;;;;;;;;;;5055818;28;20037;-62
2022/06/13 04:55:13;;;;;;;10.05;2.90;;;;;;;;;;5078950;28;20024;-62
2022/06/13 04:57:39;;;;;;;10.77;4.05;;;;;;;;;;5058296;28;20041;-62
2022/06/13 05:00:06;;;;;;;10.68;2.97;;;;;;;;;;5069629;28;20495;-62
2022/06/13 05:02:38;;;;;;;8.30;3.63;;;;;;;;;;5063805;28;20029;-61
2022/06/13 05:05:05;;;;;;;9.60;3.30;;;;;;;;;;5057723;28;20036;-62
2022/06/13 05:07:34;;;;;;;6.28;2.88;;;;;;;;;;5069900;28;20103;-62
2022/06/13 05:10:02;;;;;;;9.38;2.90;;;;;;;;;;5059472;28;20506;-62
2022/06/13 05:12:41;;;;;;;7.93;2.95;;;;;;;;;;5066028;28;20025;-62
2022/06/13 05:15:07;;;;;;;11.70;3.40;;;;;;;;;;5063816;28;20033;-62
2022/06/13 05:17:36;;;;;;;7.78;3.03;;;;;;;;;;5059835;28;20028;-62
2022/06/13 05:20:17;;;;;;;9.93;3.28;;;;;;;;;;5060208;28;20035;-62
2022/06/13 05:22:44;;;;;;;11.52;2.90;;;;;;;;;;5053232;28;20029;-62
2022/06/13 05:25:23;;;;;;;9.20;3.45;;;;;;;;;;5056639;28;20100;-62
2022/06/13 05:27:50;;;;;;;9.18;3.55;;;;;;;;;;5069973;28;20033;-62
2022/06/13 05:30:17;;;;;;;9.73;3.03;;;;;;;;;;5060746;28;20504;-62
2022/06/13 05:32:44;;;;;;;8.77;3.10;;;;;;;;;;5063391;28;20033;-62
2022/06/13 05:35:18;;;;;;;11.20;4.00;;;;;;;;;;5060193;28;20049;-62
2022/06/13 05:37:44;;;;;;;6.75;3.45;;;;;;;;;;5073234;28;20084;-62
2022/06/13 05:40:14;;;;;;;7.22;3.08;;;;;;;;;;5074452;28;20078;-62
2022/06/13 05:42:40;;;;;;;9.18;3.50;;;;;;;;;;5078538;28;20043;-62
2022/06/13 05:45:07;;;;;;;9.63;3.15;;;;;;;;;;5062693;28;20451;-62
2022/06/13 05:47:33;;;;;;;9.82;4.63;;;;;;;;;;5052877;28;20112;-62
2022/06/13 05:49:59;;;;;;;9.88;3.72;;;;;;;;;;5054992;28;20122;-62
2022/06/13 05:52:25;;;;;;;9.75;3.42;;;;;;;;;;5067747;28;20031;-62
2022/06/13 05:54:51;;;;;;;9.73;3.45;;;;;;;;;;5062085;28;20013;-62
2022/06/13 05:57:17;;;;;;;16.67;4.70;;;;;;;;;;5061027;28;20476;-62
2022/06/13 05:59:43;;;;;;;14.02;3.67;;;;;;;;;;5069390;28;20044;-63
2022/06/13 06:02:10;;;;;;;13.00;3.53;;;;;;;;;;5055045;28;20128;-63
2022/06/13 06:04:36;;;;;;;10.50;3.80;;;;;;;;;;5058299;28;20489;-62
2022/06/13 06:07:03;;;;;;;11.38;3.70;;;;;;;;;;5068746;28;20106;-63
2022/06/13 06:09:29;;;;;;;11.63;3.90;;;;;;;;;;5066867;28;20025;-73
2022/06/13 06:11:55;;;;;;;18.48;4.90;;;;;;;;;;5067548;28;20029;-63
2022/06/13 06:14:21;;;;;;;10.98;3.95;;;;;;;;;;5057696;28;20082;-63
2022/06/13 06:16:47;;;;;;;10.10;3.33;;;;;;;;;;5056486;28;20025;-63
2022/06/13 06:19:13;;;;;;;11.32;4.00;;;;;;;;;;5052281;28;20400;-63
2022/06/13 06:21:39;;;;;;;16.02;3.22;;;;;;;;;;5052475;28;20400;-63
2022/06/13 06:24:06;;;;;;;18.25;3.70;;;;;;;;;;5053017;28;20029;-64
2022/06/13 06:26:32;;;;;;;14.98;3.88;;;;;;;;;;5052425;28;20017;-64
2022/06/13 06:28:58;;;;;;;14.20;3.70;;;;;;;;;;5060717;28;20506;-63
2022/06/13 06:31:25;;;;;;;7.78;3.67;;;;;;;;;;5064749;28;20056;-64
2022/06/13 06:33:51;;;;;;;10.93;4.10;;;;;;;;;;5065109;28;20594;-64
2022/06/13 06:36:17;;;;;;;18.10;4.15;;;;;;;;;;5069888;28;20058;-64
2022/06/13 06:38:45;;;;;;;6.93;3.35;;;;;;;;;;5056242;28;20052;-63
2022/06/13 06:41:11;;;;;;;17.25;4.00;;;;;;;;;;5059322;28;20020;-63
2022/06/13 06:43:38;;;;;;;8.75;3.53;;;;;;;;;;5073612;28;20031;-63
2022/06/13 06:46:05;;;;;;;13.32;3.20;;;;;;;;;;5073434;28;20060;-63
2022/06/13 06:48:31;;;;;;;12.57;3.58;;;;;;;;;;5072738;28;20121;-63
2022/06/13 06:50:57;;;;;;;12.85;3.13;;;;;;;;;;5072618;28;20025;-63
2022/06/13 06:53:25;;;;;;;11.00;2.78;;;;;;;;;;5072999;28;20040;-63
2022/06/13 07:01:22;;;;;;;15.55;2.92;;;;;;;;;;5072598;28;20035;-63
2022/06/13 07:03:48;;;;;;;15.05;2.70;;;;;;;;;;5071250;28;20393;-63
2022/06/13 07:06:15;;;;;;;18.05;3.60;;;;;;;;;;5052742;28;20032;-63
2022/06/13 07:08:43;;;;;;;12.57;3.25;;;;;;;;;;5052592;28;20036;-63
2022/06/13 07:13:57;;;;;;;12.75;3.85;;;;;;;;;;5052332;28;20415;-63
2022/06/13 07:16:23;;;;;;;14.30;3.20;;;;;;;;;;5057679;28;20037;-63
2022/06/13 07:18:49;;;;;;;18.42;3.33;;;;;;;;;;5052220;28;20489;-63
2022/06/13 07:21:15;;;;;;;14.73;3.10;;;;;;;;;;5064847;28;20033;-63
2022/06/13 07:23:42;;;;;;;14.75;2.90;;;;;;;;;;5069506;28;20398;-63
2022/06/13 07:26:08;;;;;;;20.85;3.22;;;;;;;;;;5052195;28;20036;-63
2022/06/13 07:28:34;;;;;;;21.33;3.72;;;;;;;;;;5052345;28;20040;-63
2022/06/13 07:31:04;;;;;;;15.85;3.22;;;;;;;;;;5052291;28;20465;-64
2022/06/13 07:33:30;;;;;;;11.95;2.85;;;;;;;;;;5052294;28;20025;-64
2022/06/13 07:35:56;;;;;;;14.27;2.58;;;;;;;;;;5051946;28;20037;-64
2022/06/13 07:38:22;;;;;;;13.52;2.90;;;;;;;;;;5052474;28;20033;-63
2022/06/13 07:41:00;;;;;;;18.98;2.88;;;;;;;;;;5052009;28;20409;-64
2022/06/13 07:43:26;;;;;;;19.98;3.97;;;;;;;;;;5070734;28;20050;-63
2022/06/13 07:45:53;;;;;;;16.98;4.57;;;;;;;;;;5058092;28;20389;-63
2022/06/13 07:48:19;;;;;;;18.25;3.33;;;;;;;;;;5051761;28;20515;-63
2022/06/13 07:50:45;;;;;;;20.13;4.03;;;;;;;;;;5051799;28;20028;-63
2022/06/13 07:53:11;;;;;;;18.77;3.78;;;;;;;;;;5056641;28;20488;-64
2022/06/13 07:55:38;;;;;;;16.10;3.10;;;;;;;;;;5072228;28;20025;-63
2022/06/13 07:58:05;;;;;;;24.77;3.35;;;;;;;;;;5071818;28;20408;-63
2022/06/13 08:00:34;;;;;;;16.75;4.13;;;;;;;;;;5071921;28;20081;-63
2022/06/13 08:03:01;;;;;;;13.57;3.15;;;;;;;;;;5071454;28;20107;-63
2022/06/13 08:05:28;;;;;;;16.77;3.65;;;;;;;;;;5072146;28;20112;-64
2022/06/13 08:07:54;;;;;;;16.40;3.30;;;;;;;;;;5071935;28;20036;-64
2022/06/13 08:10:20;;;;;;;17.27;3.17;;;;;;;;;;5071972;28;20039;-64
2022/06/13 08:12:46;;;;;;;16.55;2.92;;;;;;;;;;5071959;28;20162;-64
2022/06/13 08:15:13;;;;;;;23.52;3.10;;;;;;;;;;5070467;28;20485;-64
2022/06/13 08:17:40;;;;;;;23.33;3.10;;;;;;;;;;5071728;28;20056;-64
2022/06/13 08:20:07;;;;;;;15.13;3.03;;;;;;;;;;5071604;28;20115;-64
2022/06/13 08:22:34;;;;;;;10.35;2.55;;;;;;;;;;5071820;28;20044;-64
2022/06/13 08:25:00;;;;;;;14.75;2.78;;;;;;;;;;5071557;28;20082;-64
2022/06/13 08:27:26;;;;;;;12.75;2.75;;;;;;;;;;5071764;28;20104;-64
2022/06/13 08:29:52;;;;;;;24.55;5.30;;;;;;;;;;5071538;28;20029;-63
2022/06/13 08:32:18;;;;;;;13.70;3.17;;;;;;;;;;5071584;28;20021;-64
2022/06/13 08:34:45;;;;;;;13.30;2.90;;;;;;;;;;5071622;28;20032;-64
2022/06/13 08:37:11;;;;;;;12.73;3.17;;;;;;;;;;5071479;28;20084;-64
2022/06/13 08:39:37;;;;;;;15.65;3.58;;;;;;;;;;5071801;28;20029;-64
2022/06/13 08:42:10;;;;;;;17.17;3.13;;;;;;;;;;5071343;28;20040;-64
2022/06/13 08:44:49;;;;;;;18.52;3.85;;;;;;;;;;5071241;28;20039;-64
2022/06/13 08:47:30;;;;;;;14.32;3.20;;;;;;;;;;5071078;28;20399;-64
2022/06/13 08:50:12;;;;;;;13.15;2.88;;;;;;;;;;5071468;28;20035;-64
2022/06/13 08:52:43;;;;;;;15.70;3.08;;;;;;;;;;5071561;28;20082;-64
2022/06/13 08:55:11;;;;;;;11.70;2.75;;;;;;;;;;5071317;28;20071;-64
2022/06/13 08:57:40;;;;;;;12.30;2.47;;;;;;;;;;5074644;28;20128;-64
2022/06/13 09:00:11;;;;;;;7.90;2.28;;;;;;;;;;5074583;28;20036;-64
2022/06/13 09:02:44;;;;;;;8.65;2.10;;;;;;;;;;5075009;28;20439;-64
2022/06/13 09:05:10;;;;;;;;;;;;;;;;;;5075214;28;20103;-64
2022/06/13 09:08:07;;;;;;;11.13;2.60;;;;;;;;;;5075205;28;20004;-64
2022/06/13 09:10:39;;;;;;;8.38;2.20;;;;;;;;;;5032818;28;21551;-64
2022/06/13 09:13:16;;;;;;;8.57;2.40;;;;;;;;;;5032751;28;20033;-64
2022/06/13 09:15:48;;;;;;;16.55;3.05;;;;;;;;;;5032426;28;20060;-64
2022/06/13 09:18:17;;;;;;;16.03;2.97;;;;;;;;;;5032683;28;20132;-64
2022/06/13 09:20:58;;;;;;;9.43;2.13;;;;;;;;;;5032856;28;20284;-64
2022/06/13 09:23:32;;;;;;;13.00;2.72;;;;;;;;;;5032480;28;20033;-64
2022/06/13 09:25:59;;;;;;;9.65;2.78;;;;;;;;;;5032504;28;20116;-64
2022/06/13 09:28:44;;;;;;;9.38;2.55;;;;;;;;;;5032121;28;20133;-64
2022/06/13 09:31:13;;;;;;;8.10;2.40;;;;;;;;;;5032124;28;20033;-64
2022/06/13 09:33:46;;;;;;;13.43;2.55;;;;;;;;;;5032581;28;20458;-63
2022/06/13 09:36:22;;;;;;;15.13;2.85;;;;;;;;;;5032323;28;20030;-64
2022/06/13 09:38:59;;;;;;;15.75;2.60;;;;;;;;;;5032454;28;20061;-65
2022/06/13 09:41:43;;;;;;;13.82;2.97;;;;;;;;;;5031312;28;20540;-65
2022/06/13 09:44:21;;;;;;;13.60;2.42;;;;;;;;;;5011820;28;20092;-65
2022/06/13 09:46:55;;;;;;;10.35;2.47;;;;;;;;;;5031606;28;20033;-65
2022/06/13 09:49:21;;;;;;;14.65;2.60;;;;;;;;;;5053978;28;20037;-65
2022/06/13 09:51:51;;;;;;;14.00;2.40;;;;;;;;;;5054241;28;20023;-65
2022/06/13 09:54:23;;;;;;;12.45;2.35;;;;;;;;;;5053901;28;20562;-65
2022/06/13 09:56:57;;;;;;;15.15;2.78;;;;;;;;;;5054201;28;20039;-65
2022/06/13 09:59:42;;;;;;;10.15;2.03;;;;;;;;;;5053643;28;20459;-65
2022/06/13 10:02:11;;;;;;;12.38;2.17;;;;;;;;;;5053997;28;20037;-65
2022/06/13 10:04:48;;;;;;;11.05;2.13;;;;;;;;;;5053831;28;20037;-65
2022/06/13 10:07:17;;;;;;;11.43;2.53;;;;;;;;;;5053482;28;20025;-65
2022/06/13 10:09:56;;;;;;;10.63;2.30;;;;;;;;;;5053848;28;20025;-65
2022/06/13 10:12:29;;;;;;;12.48;1.70;;;;;;;;;;5053254;28;20075;-65
2022/06/13 10:15:01;;;;;;;7.47;1.77;;;;;;;;;;5053828;28;20037;-66
2022/06/13 10:17:30;;;;;;;15.68;2.88;;;;;;;;;;5053538;28;20469;-66
2022/06/13 10:20:03;;;;;;;8.52;1.98;;;;;;;;;;5053775;28;20068;-66
2022/06/13 10:22:47;;;;;;;17.40;3.13;;;;;;;;;;5053474;28;20535;-66
2022/06/13 10:25:35;;;;;;;10.75;2.13;;;;;;;;;;5053496;28;20112;-65
2022/06/13 10:28:22;;;;;;;11.27;2.00;;;;;;;;;;5052240;28;20027;-66
2022/06/13 10:30:57;;;;;;;8.25;2.28;;;;;;;;;;5032364;28;20509;-66
2022/06/13 10:33:26;;;;;;;8.45;2.10;;;;;;;;;;5043845;28;20072;-66
2022/06/13 10:35:52;;;;;;;8.15;1.90;;;;;;;;;;5055391;28;20032;-66
2022/06/13 10:38:36;;;;;;;7.53;1.90;;;;;;;;;;5063939;28;20119;-66
2022/06/13 10:41:02;;;;;;;8.23;1.92;;;;;;;;;;5049061;28;20562;-66
2022/06/13 10:43:30;;;;;;;10.55;1.83;;;;;;;;;;5050152;28;20036;-66
2022/06/13 10:45:56;;;;;;;9.65;2.35;;;;;;;;;;5034814;28;20033;-66
2022/06/13 10:48:22;;;;;;;7.40;2.30;;;;;;;;;;5031394;28;20030;-66
2022/06/13 10:51:02;;;;;;;11.32;1.95;;;;;;;;;;5030203;28;20378;-66
2022/06/13 10:53:35;;;;;;;11.32;2.22;;;;;;;;;;5049110;28;20131;-66
2022/06/13 10:56:03;;;;;;;7.93;1.40;;;;;;;;;;5050168;28;20051;-66
2022/06/13 10:58:41;;;;;;;10.32;2.30;;;;;;;;;;5046695;28;20041;-66
2022/06/13 11:01:10;;;;;;;7.13;2.10;;;;;;;;;;5050149;28;20045;-66
2022/06/13 11:03:36;;;;;;;8.00;2.25;;;;;;;;;;5046729;28;20037;-66
2022/06/13 11:06:05;;;;;;;7.30;1.42;;;;;;;;;;5030777;28;20049;-66
2022/06/13 11:08:33;;;;;;;7.75;2.00;;;;;;;;;;5057771;28;20036;-66
2022/06/13 11:11:00;;;;;;;10.18;2.10;;;;;;;;;;5070878;28;20032;-66
2022/06/13 11:13:28;;;;;;;9.48;1.83;;;;;;;;;;5053208;28;20043;-66
2022/06/13 11:24:27;;;;;;;;;;;;;;;;;;5072524;28;20442;-66
2022/06/13 11:29:38;;;;;;;13.18;2.50;;;;;;;;;;5056410;28;20067;-65
2022/06/13 11:32:06;;;;;;;8.80;2.50;;;;;;;;;;5052107;28;20563;-65
2022/06/13 11:34:39;;;;;;;9.55;1.95;;;;;;;;;;5051899;28;20485;-65
2022/06/13 11:37:05;;;;;;;11.15;2.58;;;;;;;;;;5052439;28;20035;-65
2022/06/13 11:39:32;;;;;;;9.65;2.20;;;;;;;;;;5051831;28;20050;-65
2022/06/13 11:41:58;;;;;;;7.93;2.10;;;;;;;;;;5052175;28;20074;-65
2022/06/13 11:44:25;;;;;;;13.60;4.13;;;;;;;;;;5051898;28;20044;-65
2022/06/13 11:46:55;;;;;;;6.00;1.60;;;;;;;;;;5051338;28;20512;-65
2022/06/13 11:49:39;;;;;;;8.68;1.92;;;;;;;;;;5051871;28;20094;-65
2022/06/13 11:52:13;;;;;;;11.20;1.70;;;;;;;;;;5051054;28;20396;-65
2022/06/13 11:54:39;;;;;;;5.30;1.77;;;;;;;;;;5051673;28;20047;-65
2022/06/13 11:57:14;;;;;;;8.15;1.52;;;;;;;;;;5051937;28;20428;-65
2022/06/13 11:59:44;;;;;;;4.68;1.55;;;;;;;;;;5052025;28;20033;-65
2022/06/13 12:02:21;;;;;;;5.65;1.63;;;;;;;;;;5051952;28;20032;-65
2022/06/13 12:04:48;;;;;;;6.63;1.58;;;;;;;;;;5052187;28;20040;-65
2022/06/13 12:07:29;;;;;;;8.60;1.92;;;;;;;;;;5052180;28;20037;-65
2022/06/13 12:09:57;;;;;;;7.65;1.90;;;;;;;;;;5051828;28;20033;-65
2022/06/13 12:12:25;;;;;;;5.82;1.42;;;;;;;;;;5051722;28;20489;-65
2022/06/13 12:14:51;;;;;;;7.72;1.67;;;;;;;;;;5051819;28;20100;-65
2022/06/13 12:17:24;;;;;;;5.82;1.75;;;;;;;;;;5052016;28;20029;-65
2022/06/13 12:20:02;;;;;;;5.63;1.23;;;;;;;;;;5051916;28;20083;-65
2022/06/13 12:23:03;;;;;;;8.68;1.88;;;;;;;;;;5051345;28;20033;-65
2022/06/13 12:25:33;;;;;;;4.07;1.80;;;;;;;;;;5009762;28;20026;-65
2022/06/13 12:28:00;;;;;;;6.15;1.40;;;;;;;;;;5010186;28;20140;-65
2022/06/13 12:30:55;;;;;;;3.95;1.38;;;;;;;;;;5020046;28;20051;-65
2022/06/13 12:33:33;;;;;;;5.78;1.38;;;;;;;;;;5010898;28;20042;-65
2022/06/13 12:36:21;;;;;;;4.22;1.13;;;;;;;;;;5013955;28;20041;-64
2022/06/13 12:38:47;;;;;;;5.72;1.50;;;;;;;;;;5033121;28;20064;-63
2022/06/13 12:41:16;;;;;;;4.78;1.48;;;;;;;;;;5033264;28;20037;-63
2022/06/13 12:44:01;;;;;;;5.53;1.60;;;;;;;;;;5033390;28;20037;-64
2022/06/13 12:46:45;;;;;;;3.97;1.25;;;;;;;;;;5033515;28;20443;-63
2022/06/13 12:49:17;;;;;;;6.47;1.63;;;;;;;;;;5033524;28;20021;-63
2022/06/13 12:51:46;;;;;;;6.55;1.50;;;;;;;;;;5033014;28;20025;-64
2022/06/13 12:54:31;;;;;;;5.07;1.30;;;;;;;;;;5016695;28;20041;-63
2022/06/13 12:57:15;;;;;;;4.40;1.30;;;;;;;;;;5033194;28;20033;-63
2022/06/13 12:59:55;;;;;;;5.05;1.70;;;;;;;;;;5046206;28;20045;-63
2022/06/13 13:02:33;;;;;;;9.13;1.63;;;;;;;;;;5054982;28;20108;-63
2022/06/13 13:05:16;;;;;;;5.28;1.67;;;;;;;;;;5055363;28;20056;-64
2022/06/13 13:07:52;;;;;;;6.70;1.45;;;;;;;;;;5054700;28;20025;-63
2022/06/13 13:10:24;;;;;;;4.00;1.58;;;;;;;;;;5055304;28;20124;-63
2022/06/13 13:12:50;;;;;;;4.60;1.15;;;;;;;;;;5055080;28;20086;-63
2022/06/13 13:15:35;;;;;;;9.70;1.50;;;;;;;;;;5054802;28;20029;-64
2022/06/13 13:18:01;;;;;;;5.45;1.45;;;;;;;;;;5055055;28;20033;-63
2022/06/13 13:20:27;;;;;;;6.03;1.50;;;;;;;;;;5054666;28;20028;-63
2022/06/13 13:22:58;;;;;;;6.10;1.33;;;;;;;;;;5055163;28;20041;-64
2022/06/13 13:25:24;;;;;;;6.13;1.30;;;;;;;;;;5054666;28;20481;-64
2022/06/13 13:27:50;;;;;;;4.22;1.50;;;;;;;;;;5054541;28;20021;-64
2022/06/13 13:30:21;;;;;;;6.47;1.98;;;;;;;;;;5054953;28;20032;-63
2022/06/13 13:33:13;;;;;;;3.70;1.17;;;;;;;;;;5074518;28;20039;-63
2022/06/13 13:35:55;;;;;;;3.73;1.23;;;;;;;;;;5072287;28;20041;-63
2022/06/13 13:38:28;;;;;;;5.38;1.45;;;;;;;;;;5074574;28;20090;-63
2022/06/13 13:40:58;;;;;;;8.13;1.58;;;;;;;;;;5074622;28;20503;-63
2022/06/13 13:43:29;;;;;;;7.65;1.83;;;;;;;;;;5074170;28;20042;-63
2022/06/13 13:46:13;;;;;;;5.20;1.45;;;;;;;;;;5066822;28;20028;-64
2022/06/13 13:48:39;;;;;;;5.93;1.55;;;;;;;;;;5057275;28;20036;-64
2022/06/13 13:51:24;;;;;;;4.32;1.60;;;;;;;;;;5054156;28;20435;-63
2022/06/13 13:53:55;;;;;;;5.88;1.38;;;;;;;;;;5054037;28;20032;-64
2022/06/13 13:56:21;;;;;;;5.53;1.50;;;;;;;;;;5054450;28;20031;-64
2022/06/13 13:58:47;;;;;;;8.25;1.40;;;;;;;;;;5064434;28;20095;-64
2022/06/13 14:01:22;;;;;;;5.40;1.60;;;;;;;;;;5061608;28;20041;-64
2022/06/13 14:04:07;;;;;;;7.68;1.90;;;;;;;;;;5063788;28;20115;-64
2022/06/13 14:06:49;;;;;;;9.43;1.58;;;;;;;;;;5062021;28;20028;-64
2022/06/13 14:09:18;;;;;;;7.88;1.88;;;;;;;;;;5063404;28;20108;-64
2022/06/13 14:12:04;;;;;;;8.35;1.65;;;;;;;;;;5069060;28;20035;-64
2022/06/13 14:15:00;;;;;;;6.20;1.65;;;;;;;;;;5061222;28;20361;-64
2022/06/13 14:17:28;;;;;;;3.90;1.63;;;;;;;;;;5056368;28;20496;-64
2022/06/13 14:19:56;;;;;;;7.60;1.98;;;;;;;;;;5055560;28;20491;-64
2022/06/13 14:22:23;;;;;;;7.95;1.75;;;;;;;;;;5060611;28;20392;-64
2022/06/13 14:25:08;;;;;;;6.63;1.35;;;;;;;;;;5061986;28;20028;-64
2022/06/13 14:27:49;;;;;;;7.35;1.25;;;;;;;;;;5058493;28;20026;-64
2022/06/13 14:33:03;;;;;;;4.65;1.50;;;;;;;;;;5058830;28;20078;-64
2022/06/13 14:35:48;;;;;;;8.50;1.75;;;;;;;;;;5064859;28;20025;-64
2022/06/13 14:38:24;;;;;;;8.50;1.88;;;;;;;;;;5064900;28;20032;-64
2022/06/13 14:40:53;;;;;;;11.38;2.47;;;;;;;;;;5058954;28;21144;-64
2022/06/13 14:43:25;;;;;;;4.78;1.60;;;;;;;;;;5063169;28;20163;-64
2022/06/13 14:45:57;;;;;;;13.88;2.83;;;;;;;;;;5062665;28;20029;-64
2022/06/13 14:48:26;;;;;;;7.83;1.90;;;;;;;;;;5056737;28;20055;-64
2022/06/13 14:50:54;;;;;;;7.43;1.92;;;;;;;;;;5062677;28;20039;-64
2022/06/13 14:53:36;;;;;;;9.57;2.15;;;;;;;;;;5050997;28;20392;-64
2022/06/13 14:56:08;;;;;;;6.97;1.67;;;;;;;;;;5066570;28;20029;-64
2022/06/13 14:58:46;;;;;;;7.83;1.70;;;;;;;;;;5072337;28;20045;-63
2022/06/13 15:01:23;;;;;;;5.20;1.45;;;;;;;;;;5067908;28;20320;-63
2022/06/13 15:04:02;;;;;;;8.77;1.50;;;;;;;;;;5051684;28;20044;-63
2022/06/13 15:06:33;;;;;;;7.30;1.85;;;;;;;;;;5063804;28;20476;-63
2022/06/13 15:08:59;;;;;;;4.68;1.33;;;;;;;;;;5066765;28;20028;-63
2022/06/13 15:11:25;;;;;;;6.43;1.55;;;;;;;;;;5056747;28;20029;-63
2022/06/13 15:13:51;;;;;;;12.80;1.50;;;;;;;;;;5071703;28;20480;-63
2022/06/13 15:16:20;;;;;;;5.25;1.40;;;;;;;;;;5067007;28;20080;-63
2022/06/13 15:18:54;;;;;;;4.22;1.60;;;;;;;;;;5052339;28;20025;-63
2022/06/13 15:21:20;;;;;;;4.05;1.33;;;;;;;;;;5052569;28;20025;-63
2022/06/13 15:23:48;;;;;;;5.32;1.70;;;;;;;;;;5052277;28;20029;-63